Aviation Digital Data Service (ADDS)

Output produced by METARs form (1547 UTC 23 September 2020)
found at http://aviationweather.gov/metar/data/
 
KTYR 231502Z 01008KT 1SM BR OVC002 18/18 A2994 RMK AO2 T01830178
KTYR 231453Z 36009KT 2SM BR OVC003 18/18 A2994 RMK AO2 SLP133 T01830178 51008
KTYR 231143Z 2312/2412 02006KT 4SM BR OVC002 
     TEMPO 2312/2315 1/2SM DZ FG OVC001 
     FM231500 02009KT 1/4SM FG OVC004 
     FM231800 02011KT 4SM BR OVC009 
     FM232100 02007KT P6SM OVC015